^^
Datos históricos de la estación: Murcia-Puente Tocinos
Diario Informe para Mayo 14, 2021 Unidades:  Métrico    Ingés   Ambas
Diario Semanal Mensual Anual
  Máxima: Mínima: Promedio:
Temperatura: 28.6 °C 17.7 °C 22.1 °C
Punto de rocio: 14.6 °C 6.5 °C 9.8 °C
Humedad: 81.3% 25% 48%
Velocidad viento: 24.5km/h 0km/h 11.3km/h
Racha viento: 46.8km/h - -
Viento- - SSO
Presión: 1016.8 hPa 1011.0 hPa -
Precipitación: 0.0 mm    
 
 
Tabla de datos para Mayo 14, 2021
Hora Temperatura Punto de rocio Presión Viento Velocidad viento Racha viento Humedad Intensidad lluvia(por hora) Nubes
00:04 21.7 °C 10.8 °C 1011.4 hPa OSO 8.7 km/h 14.5 km/h 50% 0.0 mm
00:09 21.7 °C 10.8 °C 1011.4 hPa SSO 8 km/h 13 km/h 50% 0.0 mm
00:14 21.7 °C 10.9 °C 1011.4 hPa SSO 7.6 km/h 13 km/h 50.2% 0.0 mm
00:19 21.7 °C 11.1 °C 1011.2 hPa SO 7.6 km/h 11.3 km/h 51% 0.0 mm
00:24 21.6 °C 11 °C 1011.2 hPa SSO 7.6 km/h 11.3 km/h 51% 0.0 mm
00:29 21.6 °C 11 °C 1011.3 hPa SSO 6.4 km/h 9.7 km/h 51% 0.0 mm
00:34 21.6 °C 11 °C 1011.3 hPa SSO 5.8 km/h 9.7 km/h 51% 0.0 mm
00:39 21.6 °C 11 °C 1011.3 hPa OSO 4.4 km/h 9.7 km/h 51% 0.0 mm
00:44 21.6 °C 11.1 °C 1011.3 hPa SE 3.9 km/h 7.6 km/h 51.2% 0.0 mm
00:49 21.5 °C 11.2 °C 1011.3 hPa ESE 3.9 km/h 9.3 km/h 52% 0.0 mm
00:54 21.3 °C 11.1 °C 1011.3 hPa SSE 3.9 km/h 9.7 km/h 52.2% 0.0 mm
00:59 21.2 °C 11.2 °C 1011.3 hPa Sur 4.4 km/h 8.4 km/h 53% 0.0 mm
01:04 21.1 °C 11.2 °C 1011.3 hPa SO 4.6 km/h 8 km/h 53% 0.0 mm
01:09 21.1 °C 11.2 °C 1011.3 hPa SSO 4.1 km/h 8.4 km/h 53% 0.0 mm
01:14 21.1 °C 11.2 °C 1011.4 hPa OSO 3.9 km/h 8 km/h 53% 0.0 mm
01:19 21 °C 11 °C 1011.4 hPa Oeste 3.9 km/h 8.4 km/h 53% 0.0 mm
01:24 20.9 °C 11.1 °C 1011.4 hPa Oeste 3.9 km/h 8 km/h 53.5% 0.0 mm
01:29 20.8 °C 11.2 °C 1011.4 hPa Oeste 3.5 km/h 8 km/h 54% 0.0 mm
01:34 20.7 °C 11.1 °C 1011.4 hPa Oeste 3.2 km/h 5.6 km/h 54% 0.0 mm
01:39 20.7 °C 11 °C 1011.4 hPa ONO 2.7 km/h 5.8 km/h 54% 0.0 mm
01:44 20.6 °C 10.9 °C 1011.4 hPa NO 2.2 km/h 6.4 km/h 54% 0.0 mm
01:49 20.6 °C 10.9 °C 1011.3 hPa NO 2.6 km/h 4.8 km/h 54% 0.0 mm
01:54 20.4 °C 11 °C 1011.3 hPa NO 2.9 km/h 5.8 km/h 54.9% 0.0 mm
01:59 20.3 °C 11 °C 1011.3 hPa NO 2.9 km/h 6.4 km/h 55% 0.0 mm
02:04 20.2 °C 11 °C 1011.2 hPa NO 2.9 km/h 7.4 km/h 55.7% 0.0 mm
02:09 20.1 °C 11 °C 1011.2 hPa ONO 2.9 km/h 8 km/h 56.1% 0.0 mm
02:14 19.9 °C 11.1 °C 1011.2 hPa ONO 2.9 km/h 3.9 km/h 57% 0.0 mm
02:19 19.8 °C 11.1 °C 1011.1 hPa ONO 2.5 km/h 3.7 km/h 57% 0.0 mm
02:24 19.8 °C 11.1 °C 1011.1 hPa ONO 2.2 km/h 3.7 km/h 57% 0.0 mm
02:29 19.8 °C 11.2 °C 1011.1 hPa ONO 0.9 km/h 3.9 km/h 57.6% 0.0 mm
02:34 19.8 °C 11.3 °C 1011.0 hPa Calm   7.4 km/h 58% 0.0 mm
02:39 19.7 °C 11.3 °C 1011.0 hPa Oeste 2 km/h 7.4 km/h 58.2% 0.0 mm
02:44 19.6 °C 11.4 °C 1011.1 hPa NNO 3.2 km/h 8 km/h 59% 0.0 mm
02:49 19.5 °C 11.3 °C 1011.1 hPa NNE 3 km/h 6.4 km/h 59% 0.0 mm
02:54 19.4 °C 11.2 °C 1011.1 hPa NE 2.9 km/h 6.4 km/h 59% 0.0 mm
02:59 19.4 °C 11.2 °C 1011.1 hPa NNE 3.5 km/h 7.4 km/h 59.2% 0.0 mm
03:04 19.4 °C 11.4 °C 1011.1 hPa NNO 3.9 km/h 8 km/h 60% 0.0 mm
03:09 19.3 °C 11.3 °C 1011.1 hPa NNO 3.2 km/h 4.8 km/h 60% 0.0 mm
03:14 19.3 °C 11.3 °C 1011.1 hPa NNO 2.9 km/h 4.8 km/h 60% 0.0 mm
03:19 19.2 °C 11.4 °C 1011.1 hPa NNO 2.9 km/h 4.8 km/h 60.6% 0.0 mm
03:24 19.2 °C 11.5 °C 1011.1 hPa ONO 2.9 km/h 4.8 km/h 61% 0.0 mm
03:29 19.1 °C 11.4 °C 1011.1 hPa ONO 2.5 km/h 4.7 km/h 61% 0.0 mm
03:34 19.1 °C 11.4 °C 1011.1 hPa NNO 2.2 km/h 4.8 km/h 61% 0.0 mm
03:39 19.1 °C 11.4 °C 1011.1 hPa NNO 2.2 km/h 3.2 km/h 61% 0.0 mm
03:44 19.1 °C 11.4 °C 1011.2 hPa NNO 2.2 km/h 3.9 km/h 61% 0.0 mm
03:49 19 °C 11.2 °C 1011.2 hPa NNO 0.8 km/h 7.6 km/h 60.4% 0.0 mm
03:54 18.8 °C 10.3 °C 1011.2 hPa Calm   11.1 km/h 57.7% 0.0 mm
03:59 18.4 °C 10.2 °C 1011.3 hPa SSO 4 km/h 11.3 km/h 58.7% 0.0 mm
04:04 18.4 °C 10.5 °C 1011.3 hPa Sur 6.5 km/h 9.7 km/h 59.9% 0.0 mm
04:09 18.5 °C 10.8 °C 1011.3 hPa Sur 6 km/h 9.7 km/h 60.8% 0.0 mm
04:14 18.9 °C 10.7 °C 1011.3 hPa SSO 5.8 km/h 9.7 km/h 58.8% 0.0 mm
04:19 19.3 °C 10.6 °C 1011.3 hPa OSO 5.1 km/h 8 km/h 57.2% 0.0 mm
04:24 19.6 °C 10.8 °C 1011.3 hPa ONO 4.7 km/h 9.5 km/h 57% 0.0 mm
04:29 19.5 °C 10.8 °C 1011.5 hPa ONO 4.6 km/h 9.7 km/h 57% 0.0 mm
04:34 19.3 °C 10.9 °C 1011.5 hPa OSO 4.6 km/h 9.7 km/h 57.9% 0.0 mm
04:39 19.3 °C 10.8 °C 1011.5 hPa SSE 4.2 km/h 9.3 km/h 58% 0.0 mm
04:44 19.3 °C 10.7 °C 1011.5 hPa SSE 3.9 km/h 9.7 km/h 57.3% 0.0 mm
04:49 19.4 °C 10.7 °C 1011.3 hPa SSE 4.3 km/h 8 km/h 57% 0.0 mm
04:54 19.5 °C 10.8 °C 1011.3 hPa OSO 4.7 km/h 9.3 km/h 57% 0.0 mm
04:59 19.5 °C 10.8 °C 1011.4 hPa Oeste 4.1 km/h 11.1 km/h 57% 0.0 mm
05:04 19.4 °C 10.6 °C 1011.4 hPa Oeste 3.9 km/h 16.7 km/h 56.8% 0.0 mm
05:09 19.5 °C 10.4 °C 1011.4 hPa ONO 6.8 km/h 18.5 km/h 55.8% 0.0 mm
05:14 19.7 °C 10.3 °C 1011.4 hPa ONO 8.4 km/h 19.3 km/h 54.6% 0.0 mm
05:19 19.8 °C 10.1 °C 1011.4 hPa Oeste 9.1 km/h 16.7 km/h 53.6% 0.0 mm
05:24 19.8 °C 9.9 °C 1011.4 hPa Oeste 9.5 km/h 16.1 km/h 53% 0.0 mm
05:29 19.8 °C 9.9 °C 1011.4 hPa SO 7.6 km/h 13 km/h 53% 0.0 mm
05:34 19.8 °C 9.9 °C 1011.3 hPa SSO 6.5 km/h 12.9 km/h 53% 0.0 mm
05:39 19.8 °C 9.6 °C 1011.3 hPa OSO 6 km/h 13 km/h 52.1% 0.0 mm
05:44 19.7 °C 9.6 °C 1011.5 hPa OSO 5.8 km/h 15.6 km/h 52% 0.0 mm
05:49 19.7 °C 9.6 °C 1011.5 hPa SO 7.3 km/h 16.1 km/h 52% 0.0 mm
05:54 19.7 °C 9.4 °C 1011.5 hPa OSO 8.4 km/h 14.5 km/h 51.5% 0.0 mm
05:59 19.8 °C 9.4 °C 1011.5 hPa OSO 7.8 km/h 16.7 km/h 51% 0.0 mm
06:04 19.9 °C 9.4 °C 1011.5 hPa SO 7.6 km/h 16.1 km/h 50.7% 0.0 mm
06:09 19.9 °C 9.4 °C 1011.5 hPa SO 8.1 km/h 16.7 km/h 50.8% 0.0 mm
06:14 19.8 °C 9.1 °C 1011.6 hPa SO 8.4 km/h 13.7 km/h 50.1% 0.0 mm
06:19 19.8 °C 9.1 °C 1011.6 hPa SO 8.4 km/h 19.8 km/h 50% 0.0 mm
06:24 19.8 °C 9 °C 1011.6 hPa OSO 8.4 km/h 20.9 km/h 50% 0.0 mm
06:29 19.7 °C 8.7 °C 1011.8 hPa OSO 8.6 km/h 20.9 km/h 49.1% 0.0 mm
06:34 19.7 °C 8.8 °C 1011.8 hPa OSO 8.7 km/h 16.1 km/h 49.4% 0.0 mm
06:39 19.7 °C 8.9 °C 1011.8 hPa SSO 8.7 km/h 20.4 km/h 49.8% 0.0 mm
06:44 19.8 °C 8.8 °C 1011.8 hPa Sur 8.7 km/h 20.9 km/h 49.4% 0.0 mm
06:49 19.8 °C 8.8 °C 1011.7 hPa SSO 9.6 km/h 19 km/h 49.2% 0.0 mm
06:54 19.8 °C 9.1 °C 1011.7 hPa SE 10 km/h 19.3 km/h 50.1% 0.0 mm
06:59 19.7 °C 9.1 °C 1012.1 hPa Sur 8 km/h 11.9 km/h 50.7% 0.0 mm
07:04 19.7 °C 8.8 °C 1012.1 hPa OSO 6.9 km/h 27.8 km/h 49.6% 0.0 mm
07:09 19.7 °C 8.9 °C 1012.1 hPa OSO 8 km/h 27.4 km/h 49.7% 0.0 mm
07:14 19.7 °C 8.7 °C 1012.4 hPa OSO 8.7 km/h 20.9 km/h 49.1% 0.0 mm
07:19 19.7 °C 8.7 °C 1012.4 hPa OSO 9.6 km/h 20.9 km/h 49% 0.0 mm
07:24 19.6 °C 8.5 °C 1012.4 hPa OSO 10 km/h 29.8 km/h 48.6% 0.0 mm
07:29 19.7 °C 8.4 °C 1012.7 hPa OSO 11.3 km/h 30.6 km/h 48% 0.0 mm
07:34 19.7 °C 8.4 °C 1012.7 hPa Oeste 12.2 km/h 29 km/h 48% 0.0 mm
07:39 19.6 °C 8.3 °C 1012.7 hPa Oeste 11 km/h 19.3 km/h 48.2% 0.0 mm
07:44 19.6 °C 8.3 °C 1013.1 hPa SO 10.3 km/h 22.2 km/h 48% 0.0 mm
07:49 19.6 °C 8.3 °C 1013.1 hPa OSO 11.3 km/h 22.5 km/h 48% 0.0 mm
07:54 19.6 °C 8.3 °C 1013.1 hPa OSO 11.9 km/h 22.2 km/h 48% 0.0 mm
07:59 19.6 °C 8.3 °C 1013.2 hPa SO 10.7 km/h 22.5 km/h 48% 0.0 mm
08:04 19.6 °C 8.2 °C 1013.2 hPa OSO 10 km/h 20.9 km/h 47.9% 0.0 mm
08:09 19.6 °C 8 °C 1013.2 hPa Oeste 11.5 km/h 20.9 km/h 47.1% 0.0 mm
08:14 19.7 °C 8 °C 1013.4 hPa Oeste 12.2 km/h 22.2 km/h 47% 0.0 mm
08:19 19.7 °C 8.2 °C 1013.4 hPa SO 10.9 km/h 22.5 km/h 47.5% 0.0 mm
08:24 19.8 °C 8.4 °C 1013.4 hPa OSO 10.3 km/h 14.8 km/h 48% 0.0 mm
08:29 19.8 °C 8.5 °C 1013.6 hPa SO 8.5 km/h 14.5 km/h 48% 0.0 mm
08:34 19.9 °C 8.6 °C 1013.6 hPa SO 7.6 km/h 11.3 km/h 48% 0.0 mm
08:39 20 °C 8.7 °C 1013.6 hPa OSO 7.1 km/h 13 km/h 48% 0.0 mm
08:44 20.1 °C 8.7 °C 1013.6 hPa OSO 6.9 km/h 19 km/h 48% 0.0 mm
08:49 20.1 °C 8.3 °C 1013.6 hPa Oeste 8 km/h 19.3 km/h 46.5% 0.0 mm
08:54 20.3 °C 8.1 °C 1013.6 hPa OSO 8.7 km/h 24.5 km/h 45.4% 0.0 mm
08:59 20.6 °C 8 °C 1013.7 hPa Oeste 11.2 km/h 30.6 km/h 44.4% 0.0 mm
09:04 20.8 °C 7.8 °C 1013.7 hPa Oeste 12.2 km/h 30.6 km/h 43.2% 0.0 mm
09:09 20.8 °C 7.8 °C 1013.7 hPa ONO 15.6 km/h 33.3 km/h 43% 0.0 mm
09:14 20.9 °C 7.6 °C 1013.8 hPa Oeste 17.2 km/h 38.9 km/h 42.2% 0.0 mm
09:19 20.9 °C 7.5 °C 1013.8 hPa Oeste 17.9 km/h 38.6 km/h 42% 0.0 mm
09:24 20.9 °C 7.7 °C 1013.8 hPa ONO 18.4 km/h 42 km/h 42.5% 0.0 mm
09:29 20.9 °C 7.7 °C 1014.0 hPa Oeste 20 km/h 42.6 km/h 42.6% 0.0 mm
09:34 20.8 °C 7.7 °C 1014.0 hPa ONO 20.9 km/h 37 km/h 42.8% 0.0 mm
09:39 20.9 °C 7.8 °C 1014.0 hPa ONO 22.5 km/h 40.7 km/h 43% 0.0 mm
09:44 21 °C 7.9 °C 1014.0 hPa ONO 23.3 km/h 40.2 km/h 43% 0.0 mm
09:49 21.1 °C 8 °C 1013.9 hPa ONO 21.3 km/h 40.7 km/h 42.9% 0.0 mm
09:54 21.1 °C 8 °C 1013.9 hPa ONO 20.1 km/h 43.1 km/h 42.9% 0.0 mm
09:59 21.2 °C 8.1 °C 1014.0 hPa ONO 21.8 km/h 43.5 km/h 43% 0.0 mm
10:04 21.3 °C 8.2 °C 1014.0 hPa Oeste 22.5 km/h 32.2 km/h 42.8% 0.0 mm
10:09 21.5 °C 8.3 °C 1014.0 hPa ONO 20.3 km/h 31.7 km/h 42.9% 0.0 mm
10:14 21.5 °C 8.1 °C 1014.1 hPa ONO 19 km/h 35.2 km/h 42% 0.0 mm
10:19 21.4 °C 8 °C 1014.1 hPa ONO 20.1 km/h 35.4 km/h 42.1% 0.0 mm
10:24 21.4 °C 7.9 °C 1014.1 hPa NO 20.9 km/h 44.4 km/h 42% 0.0 mm
10:29 21.5 °C 8 °C 1014.1 hPa ONO 23.1 km/h 46.8 km/h 42% 0.0 mm
10:34 21.5 °C 8.2 °C 1014.0 hPa ONO 24.5 km/h 46.7 km/h 42.4% 0.0 mm
10:39 21.7 °C 8.2 °C 1014.0 hPa NO 21.7 km/h 30.6 km/h 42% 0.0 mm
10:44 21.8 °C 8 °C 1014.3 hPa ONO 20.1 km/h 38.9 km/h 41.2% 0.0 mm
10:49 21.8 °C 8.1 °C 1014.3 hPa NO 18.4 km/h 38.6 km/h 41.4% 0.0 mm
10:54 21.9 °C 8 °C 1014.3 hPa ONO 17.2 km/h 28.2 km/h 41.1% 0.0 mm
10:59 22 °C 8.1 °C 1014.5 hPa ONO 16.6 km/h 27.8 km/h 41% 0.0 mm
11:04 22.1 °C 8.2 °C 1014.5 hPa ONO 16.4 km/h 35.9 km/h 40.9% 0.0 mm
11:09 22 °C 8.1 °C 1014.5 hPa ONO 19.4 km/h 35.4 km/h 41% 0.0 mm
11:14 22.1 °C 7.9 °C 1014.5 hPa ONO 20.9 km/h 35.9 km/h 40% 0.0 mm
11:19 22.2 °C 7.8 °C 1014.5 hPa Oeste 20.9 km/h 35.9 km/h 39.7% 0.0 mm
11:24 22.3 °C 7.7 °C 1014.5 hPa ONO 20.9 km/h 35.9 km/h 39% 0.0 mm
11:29 22.4 °C 7.8 °C 1014.7 hPa ONO 20.9 km/h 35.4 km/h 39% 0.0 mm
11:34 22.5 °C 7.9 °C 1014.7 hPa ONO 20.9 km/h 35.4 km/h 39% 0.0 mm
11:39 22.6 °C 7.8 °C 1014.7 hPa Oeste 18.4 km/h 28.2 km/h 38.8% 0.0 mm
11:44 22.7 °C 7.7 °C 1014.7 hPa Oeste 17.2 km/h 35.2 km/h 38.2% 0.0 mm
11:49 22.7 °C 7.6 °C 1014.6 hPa ONO 17.9 km/h 37 km/h 38% 0.0 mm
11:54 22.8 °C 7.8 °C 1014.6 hPa NO 18.4 km/h 37 km/h 38.2% 0.0 mm
11:59 22.9 °C 7.8 °C 1014.6 hPa ONO 19.3 km/h 35.4 km/h 37.9% 0.0 mm
12:04 23.1 °C 7.7 °C 1014.5 hPa ONO 19.8 km/h 31.5 km/h 37.2% 0.0 mm
12:09 23.2 °C 7.6 °C 1014.5 hPa NO 18.7 km/h 33.3 km/h 36.7% 0.0 mm
12:14 23.3 °C 7.4 °C 1014.5 hPa ONO 18 km/h 33.8 km/h 36% 0.0 mm
12:19 23.3 °C 7.4 °C 1014.4 hPa ONO 18.2 km/h 33.8 km/h 36% 0.0 mm
12:24 23.5 °C 7.6 °C 1014.4 hPa ONO 18.4 km/h 27 km/h 36% 0.0 mm
12:29 23.7 °C 7.6 °C 1014.5 hPa ONO 15.5 km/h 32.3 km/h 35.7% 0.0 mm
12:34 23.8 °C 7.5 °C 1014.5 hPa ONO 13.7 km/h 33.8 km/h 35.3% 0.0 mm
12:39 23.9 °C 7.7 °C 1014.5 hPa NO 15.4 km/h 22.2 km/h 35.5% 0.0 mm
12:44 24 °C 7.6 °C 1014.5 hPa Oeste 16.4 km/h 29.6 km/h 35% 0.0 mm
12:49 24.1 °C 7.6 °C 1014.3 hPa Oeste 15.4 km/h 29 km/h 34.9% 0.0 mm
12:54 24.2 °C 7.6 °C 1014.3 hPa ONO 14.8 km/h 27.8 km/h 34.7% 0.0 mm
12:59 24.2 °C 7.4 °C 1014.3 hPa Oeste 13.2 km/h 27.8 km/h 34% 0.0 mm
13:04 24.3 °C 7.5 °C 1014.3 hPa ONO 12.2 km/h 29.8 km/h 34% 0.0 mm
13:09 24.4 °C 7.5 °C 1014.3 hPa NO 13.8 km/h 30.6 km/h 34.1% 0.0 mm
13:14 24.4 °C 7.1 °C 1014.4 hPa ONO 14.8 km/h 33.5 km/h 33.1% 0.0 mm
13:19 24.6 °C 7.3 °C 1014.4 hPa ONO 15.3 km/h 33.8 km/h 33% 0.0 mm
13:24 24.8 °C 7.3 °C 1014.4 hPa ONO 15.6 km/h 33.8 km/h 32.7% 0.0 mm
13:29 24.7 °C 7.2 °C 1014.4 hPa ONO 15.9 km/h 29.8 km/h 32.7% 0.0 mm
13:34 24.7 °C 7.4 °C 1014.3 hPa ONO 16.1 km/h 30.6 km/h 33% 0.0 mm
13:39 25.1 °C 7.3 °C 1014.3 hPa ONO 14.5 km/h 25.7 km/h 32.2% 0.0 mm
13:44 25.1 °C 7.2 °C 1014.3 hPa NO 13.7 km/h 24.1 km/h 31.8% 0.0 mm
13:49 25.2 °C 7.3 °C 1014.2 hPa ONO 13.3 km/h 25.9 km/h 31.9% 0.0 mm
13:54 25.2 °C 7.3 °C 1014.2 hPa ONO 13 km/h 25.9 km/h 32% 0.0 mm
13:59 25.1 °C 7.2 °C 1014.2 hPa NO 14.8 km/h 25.9 km/h 31.9% 0.0 mm
14:04 25.2 °C 7 °C 1014.1 hPa ONO 15.6 km/h 26.2 km/h 31.1% 0.0 mm
14:09 25.3 °C 7.3 °C 1014.1 hPa ONO 14 km/h 27.8 km/h 31.6% 0.0 mm
14:14 25.7 °C 7.4 °C 1014.1 hPa NO 13 km/h 27.4 km/h 31.3% 0.0 mm
14:19 25.7 °C 7.5 °C 1013.9 hPa NO 14.7 km/h 31.7 km/h 31.4% 0.0 mm
14:24 25.7 °C 7.4 °C 1013.9 hPa Oeste 15.6 km/h 22.2 km/h 31.2% 0.0 mm
14:29 25.7 °C 7.3 °C 1014.0 hPa ONO 14 km/h 22.5 km/h 31% 0.0 mm
14:34 26 °C 7.6 °C 1014.0 hPa ONO 13 km/h 22.5 km/h 31% 0.0 mm
14:39 26.3 °C 7.4 °C 1014.0 hPa ONO 11 km/h 22.5 km/h 30.2% 0.0 mm
14:44 26.3 °C 7.8 °C 1014.0 hPa ONO 10 km/h 24.1 km/h 30.8% 0.0 mm
14:49 26.4 °C 7.5 °C 1013.9 hPa ONO 12.3 km/h 24.1 km/h 30.2% 0.0 mm
14:54 26.4 °C 7.5 °C 1013.9 hPa OSO 13.7 km/h 22.2 km/h 30% 0.0 mm
14:59 26.5 °C 7.6 °C 1013.9 hPa Oeste 11.5 km/h 22.5 km/h 30.2% 0.0 mm
15:04 26.6 °C 7.1 °C 1013.9 hPa ONO 10.3 km/h 20.9 km/h 29.1% 0.0 mm
15:09 26.6 °C 7.1 °C 1013.9 hPa NO 9.3 km/h 25.9 km/h 29% 0.0 mm
15:14 26.6 °C 7.1 °C 1013.9 hPa ONO 8.7 km/h 25.7 km/h 29% 0.0 mm
15:19 26.4 °C 6.9 °C 1013.9 hPa ENE 9.7 km/h 19.3 km/h 29% 0.0 mm
15:24 26.6 °C 6.9 °C 1013.9 hPa NO 10.3 km/h 20.1 km/h 28.7% 0.0 mm
15:29 26.7 °C 6.9 °C 1013.9 hPa ONO 9.3 km/h 22.5 km/h 28.3% 0.0 mm
15:34 26.9 °C 7.2 °C 1013.7 hPa ONO 8.7 km/h 22.5 km/h 28.8% 0.0 mm
15:39 27.2 °C 7.1 °C 1013.7 hPa ONO 10.7 km/h 26.2 km/h 28% 0.0 mm
15:44 27.1 °C 6.9 °C 1013.7 hPa ONO 11.9 km/h 25.7 km/h 27.7% 0.0 mm
15:49 27.2 °C 7 °C 1013.7 hPa ONO 10 km/h 11.9 km/h 27.7% 0.0 mm
15:54 27.5 °C 6.9 °C 1013.7 hPa Oeste 8.7 km/h 22.2 km/h 27.2% 0.0 mm
15:59 27.6 °C 6.9 °C 1013.7 hPa NO 10.3 km/h 22.5 km/h 27% 0.0 mm
16:04 27.5 °C 6.8 °C 1013.6 hPa North 11.1 km/h 22.5 km/h 27% 0.0 mm
16:09 27.6 °C 6.9 °C 1013.6 hPa SO 9.7 km/h 14.8 km/h 27% 0.0 mm
16:14 27.7 °C 7 °C 1013.6 hPa Sur 8.7 km/h 14.8 km/h 27% 0.0 mm
16:19 27.9 °C 6.7 °C 1013.4 hPa SSO 8.7 km/h 16.7 km/h 26.1% 0.0 mm
16:24 28 °C 6.7 °C 1013.4 hPa SSE 8.7 km/h 16.7 km/h 26% 0.0 mm
16:29 27.9 °C 6.6 °C 1013.4 hPa SO 8.5 km/h 20.9 km/h 26% 0.0 mm
16:34 27.9 °C 6.7 °C 1013.4 hPa Oeste 8.4 km/h 20.9 km/h 26% 0.0 mm
16:39 28 °C 6.7 °C 1013.4 hPa OSO 9.1 km/h 20.9 km/h 26% 0.0 mm
16:44 28.1 °C 6.8 °C 1013.4 hPa SO 9.5 km/h 14.5 km/h 26% 0.0 mm
16:49 28.2 °C 6.8 °C 1013.2 hPa SO 9 km/h 19 km/h 26% 0.0 mm
16:54 28.3 °C 7 °C 1013.2 hPa OSO 8.7 km/h 19.3 km/h 26% 0.0 mm
16:59 28.5 °C 6.8 °C 1013.2 hPa OSO 9.6 km/h 26.2 km/h 25.4% 0.0 mm
17:04 28.4 °C 6.5 °C 1013.2 hPa OSO 10 km/h 25.7 km/h 25% 0.0 mm
17:09 28.6 °C 6.6 °C 1013.2 hPa OSO 9.2 km/h 14.8 km/h 25.1% 0.0 mm
17:14 28.4 °C 8.6 °C 1013.2 hPa NNE 8.7 km/h 18.5 km/h 28.8% 0.0 mm
17:19 28 °C 9.2 °C 1013.1 hPa NE 9.5 km/h 25.9 km/h 30.9% 0.0 mm
17:24 27.5 °C 9.5 °C 1013.1 hPa NNE 10 km/h 40.7 km/h 32.4% 0.0 mm
17:29 27.1 °C 9.3 °C 1013.1 hPa NE 17.2 km/h 40.2 km/h 32.5% 0.0 mm
17:34 27.2 °C 10.6 °C 1013.0 hPa ENE 21.7 km/h 37.8 km/h 35.5% 0.0 mm
17:39 26.9 °C 10.8 °C 1013.0 hPa ESE 18.2 km/h 37 km/h 36.6% 0.0 mm
17:44 26.5 °C 10.7 °C 1013.2 hPa ESE 16.4 km/h 37 km/h 37.2% 0.0 mm
17:49 26.3 °C 10.8 °C 1013.2 hPa Este 19.2 km/h 37 km/h 37.7% 0.0 mm
17:54 26.2 °C 10.8 °C 1013.2 hPa Este 20.9 km/h 32.2 km/h 38% 0.0 mm
17:59 26.2 °C 11.1 °C 1013.5 hPa Este 18 km/h 29.8 km/h 38.9% 0.0 mm
18:04 25.9 °C 10.9 °C 1013.5 hPa Este 16.4 km/h 30.6 km/h 39% 0.0 mm
18:09 25.7 °C 10.7 °C 1013.5 hPa Este 18.4 km/h 38.9 km/h 39% 0.0 mm
18:14 25.5 °C 10.5 °C 1013.7 hPa ESE 19.8 km/h 38.6 km/h 39% 0.0 mm
18:19 25.4 °C 10.5 °C 1013.7 hPa ESE 19.8 km/h 29.6 km/h 39% 0.0 mm
18:24 25.5 °C 10.7 °C 1013.7 hPa ESE 19.8 km/h 29 km/h 39.4% 0.0 mm
18:29 25.6 °C 10.6 °C 1013.7 hPa ESE 17.6 km/h 30.6 km/h 39% 0.0 mm
18:34 25.4 °C 10.4 °C 1013.7 hPa Este 16.1 km/h 30.6 km/h 38.9% 0.0 mm
18:39 25.3 °C 10.4 °C 1013.7 hPa ENE 14.8 km/h 26.2 km/h 39.2% 0.0 mm
18:44 25.3 °C 10.5 °C 1013.8 hPa Este 14 km/h 25.9 km/h 39.5% 0.0 mm
18:49 25.3 °C 10.4 °C 1013.8 hPa Este 14.5 km/h 27.8 km/h 39.3% 0.0 mm
18:54 25.2 °C 10.4 °C 1013.8 hPa Este 14.8 km/h 31.7 km/h 39.6% 0.0 mm
18:59 24.9 °C 10.4 °C 1013.8 hPa Este 15.6 km/h 32.2 km/h 40% 0.0 mm
19:04 24.9 °C 10.4 °C 1013.8 hPa Este 16.1 km/h 32.2 km/h 40% 0.0 mm
19:09 24.8 °C 10.3 °C 1013.8 hPa Este 15.2 km/h 26.2 km/h 39.9% 0.0 mm
19:14 24.7 °C 10.5 °C 1014.0 hPa Este 14.8 km/h 31.5 km/h 40.8% 0.0 mm
19:19 24.6 °C 10.5 °C 1014.0 hPa Este 15.7 km/h 32.2 km/h 41% 0.0 mm
19:24 24.5 °C 10.3 °C 1014.0 hPa ENE 16.1 km/h 25.7 km/h 41% 0.0 mm
19:29 24.4 °C 10.6 °C 1014.0 hPa Este 14.7 km/h 25.9 km/h 41.8% 0.0 mm
19:34 24.4 °C 10.8 °C 1013.9 hPa ESE 14 km/h 26.2 km/h 42.4% 0.0 mm
19:39 24.2 °C 11.1 °C 1013.9 hPa Este 13.8 km/h 25.7 km/h 43.7% 0.0 mm
19:44 24.2 °C 11.2 °C 1014.0 hPa ENE 13.7 km/h 20.9 km/h 44.2% 0.0 mm
19:49 24 °C 11.2 °C 1014.0 hPa Este 11.1 km/h 20.4 km/h 44.4% 0.0 mm
19:54 23.8 °C 11 °C 1014.0 hPa ENE 9.5 km/h 20.9 km/h 44.4% 0.0 mm
19:59 23.7 °C 10.8 °C 1014.0 hPa ENE 9.5 km/h 24.1 km/h 44% 0.0 mm
20:04 23.6 °C 11.1 °C 1014.0 hPa ENE 9.5 km/h 24.5 km/h 45.4% 0.0 mm
20:09 23.4 °C 10.8 °C 1014.0 hPa ESE 9.8 km/h 24.1 km/h 45% 0.0 mm
20:14 23.3 °C 11.1 °C 1014.2 hPa NE 10 km/h 24.5 km/h 46.3% 0.0 mm
20:19 23.1 °C 11 °C 1014.2 hPa ENE 10 km/h 24.1 km/h 46.6% 0.0 mm
20:24 23 °C 10.6 °C 1014.2 hPa Este 10 km/h 20.9 km/h 45.4% 0.0 mm
20:29 23.1 °C 10.6 °C 1014.5 hPa ENE 9.2 km/h 14.5 km/h 45.3% 0.0 mm
20:34 22.9 °C 11.5 °C 1014.5 hPa NNE 8.7 km/h 20.4 km/h 48.7% 0.0 mm
20:39 22.4 °C 12 °C 1014.5 hPa NE 9.8 km/h 22.5 km/h 51.7% 0.0 mm
20:44 22 °C 12.3 °C 1014.5 hPa NE 10.3 km/h 22.5 km/h 54.2% 0.0 mm
20:49 21.7 °C 12.6 °C 1014.5 hPa NNE 11.4 km/h 27.8 km/h 56% 0.0 mm
20:54 21.3 °C 12.6 °C 1014.5 hPa NNE 11.9 km/h 27.4 km/h 57.6% 0.0 mm
20:59 21.2 °C 12.8 °C 1014.9 hPa NNE 13.3 km/h 22.5 km/h 58.9% 0.0 mm
21:04 21.1 °C 13 °C 1014.9 hPa NNE 14 km/h 20.9 km/h 60% 0.0 mm
21:09 20.9 °C 13.1 °C 1014.9 hPa NE 13.8 km/h 27.8 km/h 60.8% 0.0 mm
21:14 20.7 °C 13.2 °C 1015.0 hPa NNE 13.7 km/h 27.4 km/h 62% 0.0 mm
21:19 20.6 °C 13.3 °C 1015.0 hPa NNE 13.9 km/h 25.7 km/h 63.1% 0.0 mm
21:24 20.4 °C 13.4 °C 1015.0 hPa NNE 14 km/h 20.9 km/h 64.4% 0.0 mm
21:29 20.2 °C 13.8 °C 1015.3 hPa NNE 13.4 km/h 22.2 km/h 66.3% 0.0 mm
21:34 20 °C 14.2 °C 1015.3 hPa NNE 13 km/h 25.9 km/h 69.3% 0.0 mm
21:39 19.7 °C 14.3 °C 1015.3 hPa NNE 14.6 km/h 25.7 km/h 71% 0.0 mm
21:44 19.6 °C 14.4 °C 1015.5 hPa NNE 15.6 km/h 24.1 km/h 72% 0.0 mm
21:49 19.4 °C 14.4 °C 1015.5 hPa NNE 15.1 km/h 24.5 km/h 72.6% 0.0 mm
21:54 19.4 °C 14.4 °C 1015.5 hPa NNE 14.8 km/h 24.1 km/h 73% 0.0 mm
21:59 19.3 °C 14.4 °C 1015.8 hPa NNE 14.1 km/h 24.1 km/h 73% 0.0 mm
22:04 19.3 °C 14.5 °C 1015.8 hPa NNE 13.7 km/h 22.5 km/h 73.7% 0.0 mm
22:09 19.2 °C 14.4 °C 1015.8 hPa NE 13.7 km/h 24.1 km/h 74% 0.0 mm
22:14 19.2 °C 14.5 °C 1015.8 hPa NE 13.7 km/h 24.1 km/h 74.4% 0.0 mm
22:19 19.1 °C 14.6 °C 1015.8 hPa NE 13.7 km/h 24.1 km/h 75% 0.0 mm
22:24 19 °C 14.6 °C 1015.8 hPa NNE 13.7 km/h 22.5 km/h 75.4% 0.0 mm
22:29 18.9 °C 14.6 °C 1016.0 hPa NNE 13.3 km/h 22.5 km/h 76% 0.0 mm
22:34 18.8 °C 14.5 °C 1016.0 hPa NNE 13 km/h 19.3 km/h 76% 0.0 mm
22:39 18.7 °C 14.4 °C 1016.0 hPa NNE 11.7 km/h 19.3 km/h 76.1% 0.0 mm
22:44 18.6 °C 14.5 °C 1016.3 hPa NNE 11.1 km/h 20.4 km/h 76.9% 0.0 mm
22:49 18.4 °C 14.4 °C 1016.3 hPa NNE 11.7 km/h 20.9 km/h 77.4% 0.0 mm
22:54 18.3 °C 14.4 °C 1016.3 hPa NNE 11.9 km/h 22.5 km/h 78% 0.0 mm
22:59 18.2 °C 14.5 °C 1016.5 hPa NNE 12.1 km/h 22.5 km/h 79% 0.0 mm
23:04 18.2 °C 14.4 °C 1016.5 hPa NNE 12.2 km/h 23.3 km/h 79% 0.0 mm
23:09 18.1 °C 14.6 °C 1016.5 hPa NNE 13.2 km/h 24.1 km/h 80% 0.0 mm
23:14 18.1 °C 14.6 °C 1016.5 hPa NNE 13.7 km/h 24.1 km/h 80% 0.0 mm
23:19 18.1 °C 14.6 °C 1016.5 hPa NNE 11.4 km/h 18.5 km/h 80% 0.0 mm
23:24 17.9 °C 14.5 °C 1016.5 hPa NNE 10 km/h 19.3 km/h 80.4% 0.0 mm
23:29 17.8 °C 14.6 °C 1016.8 hPa NNE 11.2 km/h 19 km/h 81% 0.0 mm
23:34 17.8 °C 14.5 °C 1016.8 hPa NNE 11.9 km/h 19.3 km/h 81% 0.0 mm
23:39 17.7 °C 14.4 °C 1016.8 hPa NNE 10.8 km/h 16.7 km/h 81% 0.0 mm
23:44 17.7 °C 14.4 °C 1016.8 hPa NNE 10.3 km/h 16.7 km/h 81% 0.0 mm
23:49 17.7 °C 14.4 °C 1016.8 hPa NNE 10.3 km/h 16.7 km/h 81.3% 0.0 mm
Murcia-Puente Tocinos, España
Compliments of Weather Underground - 3 mb

La estación de MeteoMurcia.com, publica sus datos en los siguientes proyectos:

Weather Underground PWS IMURCIAP2 Meteoclimatic www.awekas.at

W3Counter
Web Analytics